createdAt,value
2022-11-24T00:01:29.373Z,2.30
2022-11-24T00:03:59.424Z,2.92
2022-11-24T00:06:28.795Z,2.05
2022-11-24T00:08:57.531Z,2.53
2022-11-24T00:11:28.753Z,2.58
2022-11-24T00:13:57.342Z,2.70
2022-11-24T00:16:31.226Z,2.30
2022-11-24T00:19:00.993Z,2.92
2022-11-24T00:21:31.274Z,1.98
2022-11-24T00:23:59.694Z,2.25
2022-11-24T00:26:32.683Z,2.58
2022-11-24T00:29:03.995Z,2.80
2022-11-24T00:31:36.840Z,2.45
2022-11-24T00:34:09.652Z,2.67
2022-11-24T00:36:38.026Z,2.38
2022-11-24T00:39:12.518Z,2.53
2022-11-24T00:41:40.614Z,2.70
2022-11-24T00:44:09.041Z,2.05
2022-11-24T00:46:37.209Z,2.50
2022-11-24T00:49:05.163Z,2.53
2022-11-24T00:51:33.220Z,2.92
2022-11-24T00:54:01.769Z,2.78
2022-11-24T00:56:30.084Z,2.88
2022-11-24T00:58:57.769Z,2.42
2022-11-24T01:01:28.541Z,2.75
2022-11-24T01:03:56.596Z,2.45
2022-11-24T01:06:26.537Z,2.92
2022-11-24T01:08:55.844Z,3.17
2022-11-24T01:11:27.302Z,3.20
2022-11-24T01:13:59.442Z,2.20
2022-11-24T01:16:34.598Z,2.92
2022-11-24T01:19:03.900Z,2.53
2022-11-24T01:21:31.492Z,3.00
2022-11-24T01:23:59.175Z,3.00
2022-11-24T01:26:26.765Z,3.28
2022-11-24T01:28:59.014Z,3.72
2022-11-24T01:31:27.678Z,2.78
2022-11-24T01:33:55.330Z,3.55
2022-11-24T01:36:23.639Z,3.67
2022-11-24T01:38:51.941Z,3.10
2022-11-24T01:41:23.896Z,3.42
2022-11-24T01:43:53.514Z,2.80
2022-11-24T01:46:31.384Z,3.38
2022-11-24T01:49:30.943Z,2.80
2022-11-24T01:52:13.168Z,3.08
2022-11-24T01:54:52.207Z,1.98
2022-11-24T01:57:43.066Z,1.80
2022-11-24T02:00:14.204Z,1.52
2022-11-24T02:02:43.876Z,1.60
2022-11-24T02:05:25.139Z,1.63
2022-11-24T02:07:56.096Z,1.60
2022-11-24T02:10:23.929Z,1.20
2022-11-24T02:12:55.066Z,1.35
2022-11-24T02:15:23.543Z,1.20
2022-11-24T02:17:51.194Z,1.42
2022-11-24T02:20:19.101Z,1.02
2022-11-24T02:23:09.285Z,1.00
2022-11-24T02:26:10.932Z,0.68
2022-11-24T02:28:38.934Z,0.90
2022-11-24T02:31:06.788Z,1.02
2022-11-24T02:33:35.123Z,0.73
2022-11-24T02:36:02.784Z,0.47
2022-11-24T02:38:32.844Z,0.80
2022-11-24T02:41:08.136Z,0.40
2022-11-24T02:43:42.878Z,0.30
2022-11-24T02:46:10.946Z,0.60
2022-11-24T02:48:39.092Z,0.57
2022-11-24T02:51:06.717Z,0.70
2022-11-24T02:53:34.309Z,1.10
2022-11-24T02:56:02.050Z,0.47
2022-11-24T02:58:29.873Z,0.32
2022-11-24T03:00:58.013Z,0.80
2022-11-24T03:03:26.658Z,0.80
2022-11-24T03:05:54.645Z,0.80
2022-11-24T03:08:22.535Z,1.52
2022-11-24T03:10:50.302Z,1.38
2022-11-24T03:13:17.877Z,1.70
2022-11-24T03:15:45.571Z,1.58
2022-11-24T03:18:13.193Z,1.58
2022-11-24T03:20:40.844Z,1.20
2022-11-24T03:23:08.416Z,1.27
2022-11-24T03:25:36.117Z,1.48
2022-11-24T03:28:04.062Z,1.13
2022-11-24T03:30:31.684Z,1.48
2022-11-24T03:32:59.314Z,1.35
2022-11-24T03:35:27.073Z,1.05
2022-11-24T03:37:54.655Z,1.23
2022-11-24T03:40:22.273Z,0.90
2022-11-24T03:42:49.941Z,1.15
2022-11-24T03:45:46.892Z,0.93
2022-11-24T03:48:06.412Z,0.85
2022-11-24T03:50:34.001Z,1.05
2022-11-24T03:53:01.605Z,1.27
2022-11-24T03:55:29.172Z,0.68
2022-11-24T03:57:56.868Z,1.02
2022-11-24T04:00:24.585Z,0.95
2022-11-24T04:02:52.358Z,0.90
2022-11-24T04:05:20.371Z,0.95
2022-11-24T04:07:48.109Z,1.40
2022-11-24T04:10:15.712Z,1.08
2022-11-24T04:12:45.958Z,1.08
2022-11-24T04:15:17.836Z,1.17
2022-11-24T04:17:47.404Z,1.45
2022-11-24T04:20:16.358Z,1.15
2022-11-24T04:22:44.193Z,1.23
2022-11-24T04:25:12.435Z,1.42
2022-11-24T04:27:40.108Z,1.40
2022-11-24T04:30:08.622Z,2.30
2022-11-24T04:32:36.943Z,1.67
2022-11-24T04:35:05.467Z,1.38
2022-11-24T04:37:34.431Z,1.30
2022-11-24T04:40:02.246Z,1.13
2022-11-24T04:42:29.864Z,1.48
2022-11-24T04:44:57.450Z,1.20
2022-11-24T04:47:26.630Z,1.48
2022-11-24T04:49:55.022Z,1.23
2022-11-24T04:52:24.446Z,1.33
2022-11-24T04:54:52.340Z,1.52
2022-11-24T04:57:23.975Z,1.92
2022-11-24T04:59:52.957Z,1.10
2022-11-24T05:02:21.559Z,1.38
2022-11-24T05:04:49.411Z,1.27
2022-11-24T05:07:19.726Z,1.38
2022-11-24T05:10:06.339Z,1.27
2022-11-24T05:12:34.133Z,1.75
2022-11-24T05:15:03.925Z,1.48
2022-11-24T05:17:34.587Z,1.45
2022-11-24T05:20:02.685Z,1.35
2022-11-24T05:22:30.442Z,1.65
2022-11-24T05:24:58.265Z,1.50
2022-11-24T05:27:25.966Z,1.27
2022-11-24T05:29:53.616Z,2.47
2022-11-24T05:32:21.327Z,1.30
2022-11-24T05:34:48.901Z,1.50
2022-11-24T05:37:16.701Z,1.35
2022-11-24T05:39:44.322Z,2.05
2022-11-24T05:42:30.340Z,1.60
2022-11-24T05:44:58.012Z,1.55
2022-11-24T05:47:25.771Z,2.15
2022-11-24T05:49:53.437Z,1.60
2022-11-24T05:52:21.103Z,1.58
2022-11-24T05:54:49.076Z,1.67
2022-11-24T05:57:19.912Z,1.55
2022-11-24T05:59:47.516Z,2.20
2022-11-24T06:02:15.250Z,1.63
2022-11-24T06:04:42.893Z,1.73
2022-11-24T06:07:12.670Z,1.92
2022-11-24T06:09:42.005Z,1.27
2022-11-24T06:12:12.620Z,1.48
2022-11-24T06:14:40.934Z,2.05
2022-11-24T06:17:10.276Z,1.73
2022-11-24T06:19:41.877Z,1.75
2022-11-24T06:22:09.882Z,1.83
2022-11-24T06:24:37.454Z,2.25
2022-11-24T06:27:05.041Z,2.00
2022-11-24T06:29:32.682Z,1.98
2022-11-24T06:32:00.404Z,2.08
2022-11-24T06:34:28.095Z,2.10
2022-11-24T06:36:55.700Z,2.28
2022-11-24T06:39:23.258Z,2.10
2022-11-24T06:41:51.307Z,2.13
2022-11-24T06:44:19.441Z,2.03
2022-11-24T06:46:47.141Z,2.50
2022-11-24T06:49:14.851Z,2.22
2022-11-24T06:51:42.688Z,2.50
2022-11-24T06:54:14.729Z,2.70
2022-11-24T06:56:42.605Z,2.95
2022-11-24T06:59:18.786Z,3.42
2022-11-24T07:01:47.241Z,3.25
2022-11-24T07:04:15.308Z,3.80
2022-11-24T07:06:43.628Z,3.70
2022-11-24T07:09:13.318Z,3.35
2022-11-24T07:11:41.601Z,3.58
2022-11-24T07:14:09.695Z,3.78
2022-11-24T07:16:38.901Z,3.25
2022-11-24T07:19:06.522Z,3.05
2022-11-24T07:21:34.148Z,3.15
2022-11-24T07:24:01.747Z,3.42
2022-11-24T07:26:29.503Z,3.88
2022-11-24T07:28:57.285Z,4.05
2022-11-24T07:31:25.202Z,4.78
2022-11-24T07:33:55.244Z,4.30
2022-11-24T07:36:23.707Z,3.33
2022-11-24T07:38:51.674Z,4.60
2022-11-24T07:41:20.811Z,3.55
2022-11-24T07:43:49.099Z,3.35
2022-11-24T07:46:19.538Z,3.60
2022-11-24T07:48:47.516Z,2.67
2022-11-24T07:51:15.887Z,2.42
2022-11-24T07:53:44.629Z,2.67
2022-11-24T07:56:12.715Z,2.58
2022-11-24T07:58:40.580Z,2.72
2022-11-24T08:01:17.961Z,2.65
2022-11-24T08:03:46.583Z,2.78
2022-11-24T08:06:25.003Z,2.83
2022-11-24T08:08:54.744Z,2.85
2022-11-24T08:11:22.722Z,2.80
2022-11-24T08:13:50.424Z,2.83
2022-11-24T08:16:19.682Z,2.58
2022-11-24T08:18:53.455Z,2.53
2022-11-24T08:21:23.337Z,3.28
2022-11-24T08:23:58.144Z,3.15
2022-11-24T08:26:26.510Z,3.65
2022-11-24T08:28:58.969Z,2.80
2022-11-24T08:31:33.921Z,3.78
2022-11-24T08:34:06.058Z,3.58
2022-11-24T08:36:34.740Z,3.30
2022-11-24T08:39:03.603Z,3.35
2022-11-24T08:41:31.401Z,3.60
2022-11-24T08:43:59.299Z,3.33
2022-11-24T08:46:27.085Z,3.08
2022-11-24T08:48:55.920Z,2.78
2022-11-24T08:51:26.585Z,3.10
2022-11-24T08:53:56.902Z,3.55
2022-11-24T08:56:26.483Z,3.35
2022-11-24T08:58:55.126Z,3.90
2022-11-24T09:01:23.822Z,3.63
2022-11-24T09:03:51.782Z,3.83
2022-11-24T09:06:23.451Z,3.30
2022-11-24T09:08:55.773Z,3.13
2022-11-24T09:11:24.818Z,3.60
2022-11-24T09:13:53.214Z,3.72
2022-11-24T09:16:25.916Z,3.55
2022-11-24T09:19:03.022Z,3.45
2022-11-24T09:21:34.244Z,3.40
2022-11-24T09:24:02.065Z,4.53
2022-11-24T09:26:32.892Z,4.50
2022-11-24T09:29:02.251Z,5.07
2022-11-24T09:31:34.453Z,3.65
2022-11-24T09:34:05.072Z,3.90
2022-11-24T09:36:32.979Z,3.92
2022-11-24T09:39:01.059Z,4.30
2022-11-24T09:41:55.568Z,3.38
2022-11-24T09:45:12.983Z,4.13
2022-11-24T09:48:02.776Z,4.20
2022-11-24T09:50:39.869Z,3.40
2022-11-24T09:53:19.353Z,3.88
2022-11-24T09:55:54.011Z,3.78
2022-11-24T09:59:05.355Z,3.88
2022-11-24T10:01:37.292Z,3.70
2022-11-24T10:04:14.519Z,3.53
2022-11-24T10:06:52.315Z,3.95
2022-11-24T10:09:33.827Z,2.97
2022-11-24T10:12:53.144Z,3.20
2022-11-24T10:15:48.083Z,5.20
2022-11-24T10:18:55.410Z,2.95
2022-11-24T10:21:39.893Z,3.55
2022-11-24T10:24:48.357Z,3.13
2022-11-24T10:27:15.898Z,4.03
2022-11-24T10:29:43.992Z,3.47
2022-11-24T10:32:33.859Z,3.22
2022-11-24T10:35:27.802Z,3.90
2022-11-24T10:38:21.002Z,3.65
2022-11-24T10:40:59.513Z,3.13
2022-11-24T10:43:28.631Z,3.33
2022-11-24T10:46:39.041Z,3.75
2022-11-24T10:49:07.395Z,3.75
2022-11-24T10:52:16.605Z,3.95
2022-11-24T10:55:02.738Z,3.90
2022-11-24T11:00:30.912Z,2.97
2022-11-24T11:03:24.421Z,3.30
2022-11-24T11:05:52.113Z,2.80
2022-11-24T11:08:25.255Z,3.08
2022-11-24T11:11:29.491Z,2.92
2022-11-24T11:14:04.364Z,2.70
2022-11-24T11:16:35.345Z,2.75
2022-11-24T11:19:50.664Z,3.05
2022-11-24T11:22:27.309Z,3.90
2022-11-24T11:25:10.194Z,2.47
2022-11-24T11:27:40.057Z,3.58
2022-11-24T11:36:16.034Z,3.25
2022-11-24T11:38:45.173Z,3.58
2022-11-24T11:41:26.896Z,3.20
2022-11-24T11:44:10.276Z,2.13
2022-11-24T11:46:38.176Z,2.60
2022-11-24T11:49:06.204Z,2.67
2022-11-24T11:51:58.530Z,2.80
2022-11-24T11:54:28.885Z,2.78
2022-11-24T11:57:21.122Z,2.72
2022-11-24T12:00:10.383Z,3.80
2022-11-24T12:03:18.765Z,3.47
2022-11-24T12:06:09.997Z,3.25
2022-11-24T12:09:21.457Z,3.35
2022-11-24T12:12:22.936Z,3.15
2022-11-24T12:15:11.000Z,3.05
2022-11-24T12:18:17.078Z,2.88
2022-11-24T12:21:26.014Z,3.05
2022-11-24T12:24:18.339Z,3.55
2022-11-24T12:26:55.289Z,2.85
2022-11-24T12:29:36.114Z,2.45
2022-11-24T12:32:44.418Z,2.78
2022-11-24T12:35:37.605Z,3.03
2022-11-24T12:38:33.086Z,2.80
2022-11-24T12:41:43.964Z,2.60
2022-11-24T12:44:51.690Z,3.25
2022-11-24T12:47:30.309Z,2.60
2022-11-24T12:50:12.346Z,3.22
2022-11-24T12:52:58.843Z,2.22
2022-11-24T12:55:29.332Z,2.65
2022-11-24T12:58:15.077Z,3.05
2022-11-24T13:01:10.402Z,3.08
2022-11-24T13:04:18.133Z,3.65
2022-11-24T13:06:58.674Z,3.03
2022-11-24T13:09:26.332Z,3.42
2022-11-24T13:12:05.929Z,3.65
2022-11-24T13:14:38.287Z,2.50
2022-11-24T13:20:26.025Z,3.95
2022-11-24T13:23:02.451Z,3.53
2022-11-24T13:25:35.419Z,2.25
2022-11-24T13:28:06.787Z,2.63
2022-11-24T13:30:34.363Z,2.22
2022-11-24T13:33:16.220Z,2.70
2022-11-24T13:36:02.627Z,2.83
2022-11-24T13:38:45.279Z,2.92
2022-11-24T13:41:33.267Z,2.42
2022-11-24T13:44:16.446Z,2.00
2022-11-24T13:47:29.841Z,2.28
2022-11-24T13:49:58.213Z,2.65
2022-11-24T13:52:46.200Z,2.83
2022-11-24T13:55:13.976Z,3.10
2022-11-24T13:57:52.829Z,3.58
2022-11-24T14:00:35.018Z,3.85
2022-11-24T14:03:39.288Z,2.85
2022-11-24T14:06:15.803Z,3.00
2022-11-24T14:08:47.334Z,3.50
2022-11-24T14:11:18.574Z,3.25
2022-11-24T14:13:46.327Z,3.10
2022-11-24T14:16:18.876Z,2.65
2022-11-24T14:18:49.825Z,2.35
2022-11-24T14:21:20.621Z,2.97
2022-11-24T14:23:56.332Z,3.17
2022-11-24T14:26:25.992Z,2.75
2022-11-24T14:28:55.016Z,2.90
2022-11-24T14:31:26.304Z,3.50
2022-11-24T14:34:12.867Z,3.35
2022-11-24T14:36:41.193Z,3.33
2022-11-24T14:39:14.637Z,3.13
2022-11-24T14:41:51.585Z,3.60
2022-11-24T14:44:30.175Z,4.22
2022-11-24T14:47:28.798Z,3.80
2022-11-24T14:50:26.352Z,3.65
2022-11-24T14:52:58.751Z,2.40
2022-11-24T14:55:32.425Z,5.10
2022-11-24T14:58:00.394Z,2.55
2022-11-24T15:00:31.602Z,3.10
2022-11-24T15:03:02.477Z,2.83
2022-11-24T15:05:58.456Z,2.70
2022-11-24T15:08:29.518Z,2.90
2022-11-24T15:11:07.687Z,2.35
2022-11-24T15:13:38.277Z,2.42
2022-11-24T15:16:15.328Z,3.15
2022-11-24T15:18:47.203Z,3.22
2022-11-24T15:21:19.490Z,3.08
2022-11-24T15:24:19.257Z,2.70
2022-11-24T15:26:46.997Z,2.55
2022-11-24T15:29:14.619Z,3.03
2022-11-24T15:31:46.447Z,3.08
2022-11-24T15:34:18.534Z,3.15
2022-11-24T15:36:46.132Z,2.63
2022-11-24T15:39:13.787Z,3.30
2022-11-24T15:41:42.118Z,3.30
2022-11-24T15:44:10.651Z,3.88
2022-11-24T15:46:39.519Z,2.85
2022-11-24T15:49:07.303Z,3.28
2022-11-24T15:51:40.375Z,3.42
2022-11-24T15:54:17.088Z,3.42
2022-11-24T15:56:44.843Z,4.05
2022-11-24T15:59:20.512Z,2.67
2022-11-24T16:01:50.567Z,4.07
2022-11-24T16:04:18.456Z,2.72
2022-11-24T16:06:46.203Z,3.08
2022-11-24T16:09:17.131Z,3.53
2022-11-24T16:11:45.092Z,3.30
2022-11-24T16:14:12.749Z,3.17
2022-11-24T16:16:41.416Z,4.13
2022-11-24T16:19:10.840Z,3.22
2022-11-24T16:21:38.471Z,3.50
2022-11-24T16:24:06.735Z,3.20
2022-11-24T16:26:34.342Z,3.40
2022-11-24T16:29:02.015Z,4.03
2022-11-24T16:31:29.762Z,4.03
2022-11-24T16:33:57.481Z,4.10
2022-11-24T16:36:25.157Z,2.63
2022-11-24T16:38:52.856Z,3.45
2022-11-24T16:41:21.748Z,5.10
2022-11-24T16:43:49.389Z,3.60
2022-11-24T16:46:21.257Z,3.10
2022-11-24T16:48:52.423Z,3.67
2022-11-24T16:51:23.006Z,3.38
2022-11-24T16:53:59.127Z,3.88
2022-11-24T16:56:29.043Z,2.97
2022-11-24T16:58:56.795Z,2.47
2022-11-24T17:01:25.952Z,3.55
2022-11-24T17:03:53.803Z,2.92
2022-11-24T17:06:22.026Z,2.80
2022-11-24T17:08:49.724Z,2.90
2022-11-24T17:11:24.917Z,2.72
2022-11-24T17:13:53.389Z,3.15
2022-11-24T17:16:23.358Z,3.10
2022-11-24T17:18:51.428Z,3.55
2022-11-24T17:21:22.346Z,3.72
2022-11-24T17:23:58.999Z,3.65
2022-11-24T17:26:27.961Z,4.00
2022-11-24T17:28:56.350Z,5.47
2022-11-24T17:31:29.156Z,3.42
2022-11-24T17:33:59.424Z,3.75
2022-11-24T17:36:28.084Z,3.75
2022-11-24T17:38:55.798Z,3.40
2022-11-24T17:41:23.536Z,3.78
2022-11-24T17:43:53.627Z,3.30
2022-11-24T17:46:21.757Z,4.15
2022-11-24T17:48:49.744Z,3.83
2022-11-24T17:51:20.477Z,3.30
2022-11-24T17:53:50.522Z,3.15
2022-11-24T17:56:24.695Z,3.63
2022-11-24T17:58:58.718Z,3.17
2022-11-24T18:01:28.657Z,2.78
2022-11-24T18:03:56.944Z,2.80
2022-11-24T18:06:25.517Z,3.65
2022-11-24T18:08:54.215Z,2.63
2022-11-24T18:11:31.524Z,2.95
2022-11-24T18:14:03.491Z,2.72
2022-11-24T18:16:34.387Z,2.80
2022-11-24T18:19:09.932Z,3.50
2022-11-24T18:21:42.239Z,3.40
2022-11-24T18:24:11.625Z,3.22
2022-11-24T18:26:41.002Z,4.25
2022-11-24T18:29:10.271Z,2.90
2022-11-24T18:31:38.800Z,3.33
2022-11-24T18:34:07.512Z,3.45
2022-11-24T18:36:35.671Z,4.18
2022-11-24T18:39:06.331Z,3.83
2022-11-24T18:41:34.730Z,3.65
2022-11-24T18:44:03.346Z,3.20
2022-11-24T18:46:31.503Z,2.95
2022-11-24T18:48:59.341Z,3.03
2022-11-24T18:51:27.241Z,2.80
2022-11-24T18:53:55.092Z,3.28
2022-11-24T18:56:22.870Z,3.58
2022-11-24T18:58:55.686Z,2.70
2022-11-24T19:01:27.507Z,2.95
2022-11-24T19:03:58.107Z,3.50
2022-11-24T19:06:34.358Z,3.40
2022-11-24T19:09:13.540Z,3.05
2022-11-24T19:11:44.271Z,2.92
2022-11-24T19:14:16.031Z,3.83
2022-11-24T19:16:55.715Z,2.95
2022-11-24T19:19:37.403Z,3.20
2022-11-24T19:22:05.757Z,3.67
2022-11-24T19:24:33.679Z,3.10
2022-11-24T19:27:01.464Z,2.75
2022-11-24T19:29:29.070Z,3.30
2022-11-24T19:31:57.253Z,3.08
2022-11-24T19:34:25.494Z,3.10
2022-11-24T19:36:53.340Z,3.50
2022-11-24T19:39:21.359Z,3.55
2022-11-24T19:41:49.087Z,3.53
2022-11-24T19:44:16.799Z,3.33
2022-11-24T19:46:44.524Z,3.72
2022-11-24T19:49:12.313Z,3.33
2022-11-24T19:51:42.429Z,4.22
2022-11-24T19:54:13.227Z,3.35
2022-11-24T19:56:41.972Z,3.08
2022-11-24T19:59:13.339Z,3.60
2022-11-24T20:01:42.717Z,3.47
2022-11-24T20:04:16.639Z,3.95
2022-11-24T20:06:46.956Z,4.85
2022-11-24T20:09:17.849Z,3.10
2022-11-24T20:11:46.025Z,3.42
2022-11-24T20:14:15.410Z,3.92
2022-11-24T20:16:45.421Z,3.28
2022-11-24T20:19:16.132Z,3.45
2022-11-24T20:21:49.891Z,4.68
2022-11-24T20:24:21.509Z,3.20
2022-11-24T20:26:56.396Z,2.75
2022-11-24T20:29:24.517Z,4.47
2022-11-24T20:31:56.200Z,3.83
2022-11-24T20:34:24.447Z,3.28
2022-11-24T20:36:55.361Z,3.10
2022-11-24T20:39:26.445Z,3.22
2022-11-24T20:41:55.547Z,2.95
2022-11-24T20:44:27.428Z,3.80
2022-11-24T20:46:57.227Z,2.72
2022-11-24T20:49:28.292Z,3.45
2022-11-24T20:51:57.304Z,3.38
2022-11-24T20:54:25.459Z,3.35
2022-11-24T20:56:53.532Z,3.60
2022-11-24T20:59:23.819Z,3.20
2022-11-24T21:01:55.406Z,3.38
2022-11-24T21:04:26.723Z,3.30
2022-11-24T21:06:54.936Z,2.92
2022-11-24T21:09:22.755Z,3.33
2022-11-24T21:11:50.455Z,3.70
2022-11-24T21:14:18.062Z,4.07
2022-11-24T21:16:45.766Z,3.45
2022-11-24T21:19:17.127Z,2.88
2022-11-24T21:21:47.548Z,3.65
2022-11-24T21:24:21.584Z,3.30
2022-11-24T21:26:51.914Z,3.40
2022-11-24T21:29:23.298Z,4.03
2022-11-24T21:31:51.450Z,3.65
2022-11-24T21:34:19.557Z,3.72
2022-11-24T21:36:48.035Z,3.70
2022-11-24T21:39:16.351Z,4.90
2022-11-24T21:41:44.428Z,3.33
2022-11-24T21:44:13.566Z,3.45
2022-11-24T21:46:46.226Z,4.10
2022-11-24T21:49:20.033Z,3.70
2022-11-24T21:51:56.031Z,4.07
2022-11-24T21:54:30.159Z,4.65
2022-11-24T21:56:57.960Z,3.55
2022-11-24T21:59:25.608Z,4.35
2022-11-24T22:01:53.265Z,3.55
2022-11-24T22:04:21.006Z,3.80
2022-11-24T22:06:48.650Z,3.78
2022-11-24T22:09:18.279Z,3.55
2022-11-24T22:11:49.484Z,4.25
2022-11-24T22:14:17.180Z,3.97
2022-11-24T22:16:44.838Z,4.47
2022-11-24T22:19:12.463Z,4.00
2022-11-24T22:21:40.098Z,4.47
2022-11-24T22:24:08.256Z,4.00
2022-11-24T22:26:35.920Z,4.50
2022-11-24T22:29:04.038Z,5.32
2022-11-24T22:31:33.257Z,4.82
2022-11-24T22:34:01.587Z,4.10
2022-11-24T22:36:30.338Z,3.85
2022-11-24T22:39:03.586Z,3.22
2022-11-24T22:41:33.585Z,4.30
2022-11-24T22:44:01.354Z,3.58
2022-11-24T22:46:31.825Z,4.47
2022-11-24T22:49:01.552Z,3.20
2022-11-24T22:51:34.624Z,3.33
2022-11-24T22:54:05.553Z,4.32
2022-11-24T22:56:34.122Z,3.78
2022-11-24T22:59:03.084Z,3.75
2022-11-24T23:01:33.557Z,4.03
2022-11-24T23:04:02.622Z,4.03
2022-11-24T23:06:32.503Z,3.97
2022-11-24T23:09:01.705Z,4.00
2022-11-24T23:11:37.654Z,3.88
2022-11-24T23:14:11.083Z,3.90
2022-11-24T23:16:39.058Z,2.80
2022-11-24T23:19:07.305Z,3.97
2022-11-24T23:21:41.043Z,4.63
2022-11-24T23:24:10.110Z,5.05
2022-11-24T23:26:40.658Z,4.60
2022-11-24T23:29:10.076Z,4.25
2022-11-24T23:31:40.089Z,5.30
2022-11-24T23:34:08.082Z,4.47
2022-11-24T23:36:35.641Z,4.72
2022-11-24T23:39:14.376Z,4.35
2022-11-24T23:41:42.046Z,3.10
2022-11-24T23:44:09.654Z,4.07
2022-11-24T23:46:37.306Z,3.47
2022-11-24T23:49:04.882Z,3.50
2022-11-24T23:51:33.885Z,2.72
2022-11-24T23:54:01.918Z,2.60
2022-11-24T23:56:33.502Z,2.30
2022-11-24T23:59:03.177Z,1.83
